Time;durP1;ratioP1;P1;durP2;ratioP2;P2;SDS_P1;SDS_P2;PMS_P1;PMS_P2;Temp;Humidity;BMP_temperature;BMP_pressure;BME280_temperature;BME280_humidity;BME280_pressure;Samples;Min_cycle;Max_cycle;Signal;HPM_P1;HPM_P2
2022/12/29 06:02:16;;;;;;;2.38;0.77;;;12.00;99.90;;;;;;5515824;23;20122;-75
2022/12/29 06:04:42;;;;;;;3.05;0.70;;;12.00;99.80;;;;;;4946046;29;20271;-76
2022/12/29 06:07:08;;;;;;;3.90;0.88;;;12.00;99.60;;;;;;4963618;29;20086;-76
2022/12/29 06:09:40;;;;;;;2.88;0.73;;;12.00;99.70;;;;;;4961942;29;20096;-75
2022/12/29 06:12:06;;;;;;;2.35;0.80;;;12.00;99.80;;;;;;4946708;29;20026;-76
2022/12/29 06:14:33;;;;;;;1.88;0.80;;;11.90;99.70;;;;;;4961914;29;20305;-76
2022/12/29 06:16:59;;;;;;;3.58;0.70;;;12.00;99.60;;;;;;4962578;29;20075;-76
2022/12/29 06:19:26;;;;;;;3.00;0.88;;;12.00;99.50;;;;;;4962443;29;20035;-76
2022/12/29 06:21:52;;;;;;;3.28;0.50;;;11.90;99.60;;;;;;4962435;29;20039;-75
2022/12/29 06:24:19;;;;;;;2.53;0.68;;;11.90;99.50;;;;;;4962421;29;20023;-76
2022/12/29 06:26:44;;;;;;;2.63;0.88;;;11.90;99.50;;;;;;4961920;29;20043;-75
2022/12/29 06:29:10;;;;;;;2.20;0.80;;;11.80;99.50;;;;;;4962476;29;20034;-74
2022/12/29 06:31:37;;;;;;;2.33;0.80;;;11.80;99.50;;;;;;4961987;29;20031;-73
2022/12/29 06:34:03;;;;;;;4.20;1.00;;;11.80;99.40;;;;;;4965065;28;20301;-74
2022/12/29 06:36:29;;;;;;;3.42;0.70;;;11.70;99.60;;;;;;4965117;29;20031;-74
2022/12/29 06:38:55;;;;;;;3.33;1.15;;;11.60;99.70;;;;;;4965686;29;20047;-74
2022/12/29 06:41:22;;;;;;;3.85;1.05;;;11.50;99.80;;;;;;4965863;29;20309;-74
2022/12/29 06:44:07;;;;;;;3.00;0.85;;;11.40;99.90;;;;;;4966963;29;20054;-74
2022/12/29 06:46:49;;;;;;;1.50;0.70;;;11.30;99.90;;;;;;4966353;28;20038;-74
2022/12/29 06:49:15;;;;;;;2.10;0.80;;;11.20;99.90;;;;;;4966850;28;20078;-74
2022/12/29 06:51:41;;;;;;;2.58;0.60;;;11.10;99.90;;;;;;4966351;28;20035;-74
2022/12/29 06:54:07;;;;;;;5.70;1.00;;;11.10;99.90;;;;;;4966858;28;20038;-74
2022/12/29 06:56:32;;;;;;;4.60;1.75;;;11.10;99.90;;;;;;4966144;28;20098;-74
2022/12/29 06:59:00;;;;;;;2.85;1.02;;;11.00;99.90;;;;;;4965250;29;20035;-74
2022/12/29 07:01:26;;;;;;;3.10;0.82;;;10.90;99.90;;;;;;4965025;29;20039;-75
2022/12/29 07:03:52;;;;;;;4.95;1.35;;;10.80;99.90;;;;;;4965536;29;20122;-74
2022/12/29 07:06:18;;;;;;;3.17;1.20;;;10.70;99.90;;;;;;4966571;28;20019;-74
2022/12/29 07:08:44;;;;;;;4.15;0.85;;;10.70;99.90;;;;;;4964972;29;20321;-74
2022/12/29 07:11:10;;;;;;;1.95;0.73;;;10.80;99.90;;;;;;4966335;28;20031;-74
2022/12/29 07:13:36;;;;;;;3.13;0.98;;;10.70;99.90;;;;;;4965940;28;20027;-74
2022/12/29 07:16:08;;;;;;;2.28;0.80;;;10.70;99.90;;;;;;4969634;29;20034;-75
2022/12/29 07:18:34;;;;;;;3.60;0.90;;;10.70;99.90;;;;;;4977843;28;20058;-75
2022/12/29 07:21:00;;;;;;;2.78;1.00;;;10.70;99.90;;;;;;4976257;29;20082;-74
2022/12/29 07:23:26;;;;;;;3.13;0.82;;;10.70;99.90;;;;;;4977316;28;20031;-75
2022/12/29 07:26:00;;;;;;;2.25;0.90;;;10.60;99.90;;;;;;4973394;29;20027;-74
2022/12/29 07:28:26;;;;;;;2.03;0.80;;;10.50;99.90;;;;;;4966591;28;20038;-74
2022/12/29 07:30:51;;;;;;;4.28;0.80;;;10.50;99.90;;;;;;4965912;29;20038;-75
2022/12/29 07:33:17;;;;;;;2.45;0.77;;;10.60;99.90;;;;;;4964973;29;20031;-74
2022/12/29 07:35:43;;;;;;;1.27;0.60;;;10.70;99.90;;;;;;4965670;29;20034;-74
2022/12/29 07:38:09;;;;;;;2.83;1.02;;;10.70;99.90;;;;;;4965925;28;20288;-74
2022/12/29 07:40:34;;;;;;;1.92;0.80;;;10.80;99.90;;;;;;4965510;28;20054;-74
2022/12/29 07:43:00;;;;;;;3.00;0.93;;;10.90;99.90;;;;;;4964772;29;20031;-74
2022/12/29 07:45:33;;;;;;;3.78;0.85;;;10.80;99.90;;;;;;4963394;28;20278;-74
2022/12/29 07:48:08;;;;;;;2.80;0.77;;;10.90;99.90;;;;;;4966011;29;20261;-74
2022/12/29 07:50:35;;;;;;;2.13;0.75;;;11.00;99.90;;;;;;4965318;28;20031;-74
2022/12/29 07:53:01;;;;;;;3.38;0.90;;;11.10;99.90;;;;;;4965549;28;20035;-75
2022/12/29 07:55:27;;;;;;;2.67;0.77;;;11.10;99.90;;;;;;4965373;28;20034;-74
2022/12/29 07:57:53;;;;;;;4.57;0.90;;;11.20;99.90;;;;;;4947895;29;20375;-74
2022/12/29 08:00:19;;;;;;;4.10;0.75;;;11.40;99.70;;;;;;4965659;28;20066;-75
2022/12/29 08:02:45;;;;;;;3.28;0.90;;;11.50;99.60;;;;;;4964455;29;20162;-74
2022/12/29 08:05:11;;;;;;;2.50;0.90;;;11.50;99.50;;;;;;4960926;29;20199;-74
2022/12/29 08:07:37;;;;;;;3.92;0.80;;;11.50;99.50;;;;;;4945804;29;20113;-74
2022/12/29 08:10:03;;;;;;;2.58;0.85;;;11.50;99.60;;;;;;4945937;29;20067;-74
2022/12/29 08:12:29;;;;;;;2.95;0.80;;;11.50;99.70;;;;;;4948983;29;20071;-74
2022/12/29 08:14:55;;;;;;;2.47;0.77;;;11.50;99.70;;;;;;4945553;29;20035;-75
2022/12/29 08:17:21;;;;;;;2.85;0.70;;;11.50;99.80;;;;;;4945782;29;20043;-75
2022/12/29 08:19:46;;;;;;;2.80;1.10;;;11.50;99.70;;;;;;4945207;29;20043;-75
2022/12/29 08:22:14;;;;;;;5.03;0.82;;;11.60;99.70;;;;;;4944665;29;20059;-75
2022/12/29 08:24:40;;;;;;;3.40;1.20;;;11.60;99.70;;;;;;4945552;29;20031;-75
2022/12/29 08:27:06;;;;;;;2.45;1.02;;;11.60;99.70;;;;;;4946016;29;20050;-75
2022/12/29 08:29:32;;;;;;;3.40;0.80;;;11.70;99.60;;;;;;4945727;29;20035;-75
2022/12/29 08:31:57;;;;;;;2.10;0.77;;;11.70;99.60;;;;;;4944274;29;20191;-74
2022/12/29 08:34:23;;;;;;;2.78;0.93;;;11.70;99.70;;;;;;4945901;29;20038;-74
2022/12/29 08:36:49;;;;;;;3.33;0.80;;;11.70;99.60;;;;;;4944996;29;20074;-75
2022/12/29 08:39:15;;;;;;;3.50;1.63;;;11.80;99.50;;;;;;4945802;29;20083;-75
2022/12/29 08:41:41;;;;;;;2.40;0.77;;;11.80;99.50;;;;;;4944744;29;20039;-74
2022/12/29 08:44:06;;;;;;;3.38;0.80;;;11.80;99.60;;;;;;4960667;29;20090;-74
2022/12/29 08:46:32;;;;;;;5.00;1.98;;;11.80;99.50;;;;;;4945590;29;20023;-74
2022/12/29 08:48:58;;;;;;;2.88;0.80;;;11.70;99.80;;;;;;4945020;29;20059;-74
2022/12/29 08:51:24;;;;;;;3.13;0.82;;;11.80;99.70;;;;;;4944149;29;20198;-74
2022/12/29 08:53:50;;;;;;;2.92;1.05;;;11.70;99.80;;;;;;4944640;29;20074;-74
2022/12/29 08:56:16;;;;;;;4.32;1.05;;;11.70;99.70;;;;;;4945251;29;20054;-74
2022/12/29 08:58:48;;;;;;;3.55;1.25;;;11.70;99.90;;;;;;4943402;29;20038;-74
2022/12/29 09:01:13;;;;;;;2.10;0.70;;;11.70;99.90;;;;;;4943946;29;20281;-74
2022/12/29 09:03:39;;;;;;;2.28;0.63;;;11.70;99.90;;;;;;4944580;29;20058;-74
2022/12/29 09:06:05;;;;;;;4.03;1.00;;;11.70;99.90;;;;;;4964409;29;20038;-74
2022/12/29 09:08:31;;;;;;;3.47;0.80;;;11.70;99.80;;;;;;4964060;28;20027;-73
2022/12/29 09:11:07;;;;;;;2.83;1.10;;;11.70;99.70;;;;;;4963663;28;20119;-75
2022/12/29 09:13:33;;;;;;;3.17;1.08;;;11.90;99.50;;;;;;4964403;29;20102;-73
2022/12/29 09:15:59;;;;;;;3.40;0.82;;;12.10;99.10;;;;;;4968271;28;20093;-74
2022/12/29 09:18:25;;;;;;;3.00;0.90;;;12.20;99.00;;;;;;4964302;29;20031;-74
2022/12/29 09:20:59;;;;;;;3.70;0.75;;;12.40;98.60;;;;;;4963921;28;20413;-74
2022/12/29 09:23:26;;;;;;;2.88;0.80;;;12.60;98.20;;;;;;4963992;29;20051;-74
2022/12/29 09:25:52;;;;;;;3.35;0.90;;;12.60;98.30;;;;;;4963675;28;20054;-74
2022/12/29 09:28:18;;;;;;;1.60;0.60;;;12.70;98.10;;;;;;4964167;28;20062;-74
2022/12/29 09:30:44;;;;;;;1.95;0.77;;;12.70;98.10;;;;;;4963467;28;20034;-74
2022/12/29 09:33:10;;;;;;;2.35;0.70;;;12.80;97.80;;;;;;4964028;29;20162;-74
2022/12/29 09:35:36;;;;;;;1.75;0.88;;;12.90;97.70;;;;;;4963853;29;20030;-75
2022/12/29 09:38:02;;;;;;;4.15;0.80;;;13.00;97.30;;;;;;4963385;28;20046;-73
2022/12/29 09:40:31;;;;;;;2.40;0.90;;;13.10;97.20;;;;;;4963911;29;20027;-73
2022/12/29 09:43:05;;;;;;;2.05;0.88;;;13.20;97.10;;;;;;4963716;28;20097;-74
2022/12/29 09:45:44;;;;;;;2.33;0.80;;;13.20;97.10;;;;;;4946955;29;20082;-73
2022/12/29 09:48:19;;;;;;;1.80;0.70;;;13.30;97.00;;;;;;4963680;28;20054;-74
2022/12/29 09:50:52;;;;;;;2.83;0.90;;;13.40;96.70;;;;;;4963441;28;20034;-75
2022/12/29 09:53:21;;;;;;;2.17;0.63;;;13.40;96.70;;;;;;4964033;29;20114;-74
2022/12/29 09:55:52;;;;;;;;;;;13.50;96.70;;;;;;4963724;28;20031;-74
2022/12/29 09:58:35;;;;;;;3.22;0.82;;;13.60;96.60;;;;;;4978718;28;20168;-73
2022/12/29 10:01:22;;;;;;;3.28;1.17;;;13.80;96.50;;;;;;4963297;28;20328;-76
2022/12/29 10:03:51;;;;;;;2.65;0.70;;;14.00;96.00;;;;;;4963221;29;20055;-74
2022/12/29 10:06:30;;;;;;;4.30;0.80;;;13.90;95.90;;;;;;4963527;28;20047;-75
2022/12/29 10:09:14;;;;;;;2.42;0.88;;;13.80;96.10;;;;;;4966046;28;20102;-74
2022/12/29 10:11:53;;;;;;;2.47;0.90;;;13.80;96.40;;;;;;4967160;28;20035;-75
2022/12/29 10:14:47;;;;;;;8.40;1.20;;;13.70;96.50;;;;;;4967706;29;20042;-75
2022/12/29 10:17:37;;;;;;;2.83;1.02;;;13.70;96.60;;;;;;4967620;29;20280;-75
2022/12/29 10:20:51;;;;;;;4.18;1.33;;;13.70;96.60;;;;;;4966880;29;20035;-75
2022/12/29 10:23:42;;;;;;;5.07;1.60;;;13.70;96.60;;;;;;4954289;29;20314;-75
2022/12/29 10:26:20;;;;;;;4.05;0.90;;;13.80;96.70;;;;;;4949550;29;20031;-74
2022/12/29 10:28:52;;;;;;;2.72;1.00;;;13.80;96.70;;;;;;4966707;29;20260;-74
2022/12/29 10:31:38;;;;;;;4.85;0.90;;;13.80;96.60;;;;;;4967315;28;20194;-74
2022/12/29 10:34:14;;;;;;;2.95;1.10;;;13.90;96.60;;;;;;4966645;28;20098;-75
2022/12/29 10:36:48;;;;;;;6.80;1.25;;;13.90;96.60;;;;;;4967213;28;20039;-74
2022/12/29 10:39:34;;;;;;;3.20;0.88;;;13.90;96.70;;;;;;4967163;29;20071;-74
2022/12/29 10:42:26;;;;;;;3.70;1.23;;;13.90;96.60;;;;;;4966670;28;20062;-74
2022/12/29 10:44:53;;;;;;;2.75;0.80;;;14.00;96.70;;;;;;4966463;29;20051;-75
2022/12/29 10:47:24;;;;;;;5.20;1.20;;;14.20;96.30;;;;;;4966016;29;20257;-75
2022/12/29 10:49:50;;;;;;;3.65;0.70;;;14.40;96.10;;;;;;4966646;29;20090;-76
2022/12/29 10:52:19;;;;;;;3.88;0.70;;;14.70;95.80;;;;;;4966952;28;20058;-76
2022/12/29 10:54:47;;;;;;;2.55;0.73;;;14.80;95.50;;;;;;4966101;29;20098;-75
2022/12/29 10:57:27;;;;;;;3.05;0.60;;;14.90;95.70;;;;;;4966407;28;20062;-74
2022/12/29 10:59:53;;;;;;;5.88;1.15;;;15.30;95.40;;;;;;4981150;28;20380;-75
2022/12/29 11:02:30;;;;;;;4.38;1.27;;;15.80;94.70;;;;;;4964923;29;20114;-74
2022/12/29 11:05:04;;;;;;;1.55;0.70;;;16.50;93.50;;;;;;4965983;29;20050;-74
2022/12/29 11:07:31;;;;;;;3.13;0.82;;;16.60;93.00;;;;;;4966645;28;20305;-74
2022/12/29 11:10:17;;;;;;;2.97;0.68;;;16.40;93.00;;;;;;4965889;29;20059;-74
2022/12/29 11:13:10;;;;;;;3.25;0.93;;;16.10;93.40;;;;;;4966012;29;20045;-74
2022/12/29 11:15:41;;;;;;;1.65;0.63;;;15.90;93.50;;;;;;4966017;28;20098;-75
2022/12/29 11:18:25;;;;;;;2.58;0.80;;;15.60;93.80;;;;;;4965765;28;20031;-75
2022/12/29 11:20:59;;;;;;;2.17;0.75;;;15.40;94.10;;;;;;4964554;28;20055;-76
2022/12/29 11:23:32;;;;;;;2.10;0.80;;;15.30;94.60;;;;;;4964838;29;20035;-75
2022/12/29 11:26:19;;;;;;;3.22;0.90;;;15.20;94.60;;;;;;4965492;29;20099;-75
2022/12/29 11:29:16;;;;;;;2.22;0.80;;;15.00;94.60;;;;;;4965367;28;20119;-75
2022/12/29 11:31:49;;;;;;;3.28;1.05;;;14.90;94.70;;;;;;4965848;28;20027;-75
2022/12/29 11:34:21;;;;;;;4.20;0.95;;;14.80;94.80;;;;;;4965800;28;20031;-75
2022/12/29 11:36:48;;;;;;;3.03;0.70;;;14.80;94.70;;;;;;4965119;28;20039;-76
2022/12/29 11:39:34;;;;;;;3.38;1.33;;;14.80;95.00;;;;;;4965775;29;20044;-75
2022/12/29 11:42:02;;;;;;;3.35;0.98;;;14.70;95.00;;;;;;4965537;28;20094;-75
2022/12/29 11:44:36;;;;;;;2.72;0.85;;;14.80;95.20;;;;;;4964636;29;20057;-75
2022/12/29 11:47:03;;;;;;;3.35;0.95;;;14.70;96.30;;;;;;4965164;28;20043;-75
2022/12/29 11:49:28;;;;;;;5.07;1.13;;;14.40;97.50;;;;;;4965712;29;20066;-75
2022/12/29 11:51:56;;;;;;;4.15;0.90;;;14.40;98.40;;;;;;4965194;28;20031;-75
2022/12/29 11:54:30;;;;;;;2.50;0.80;;;14.90;98.00;;;;;;4968206;29;20336;-75
2022/12/29 11:56:58;;;;;;;2.70;1.02;;;14.80;97.90;;;;;;4965234;28;20050;-76
2022/12/29 11:59:38;;;;;;;4.03;0.90;;;14.90;97.60;;;;;;4965497;29;20035;-76
2022/12/29 12:02:31;;;;;;;3.03;1.00;;;14.70;97.60;;;;;;4964973;28;20047;-76
2022/12/29 12:05:23;;;;;;;3.28;1.05;;;14.30;98.40;;;;;;4937731;28;20043;-76
2022/12/29 12:08:31;;;;;;;2.40;0.90;;;14.10;99.90;;;;;;4964866;28;20336;-76
2022/12/29 12:11:05;;;;;;;;;;;13.70;99.90;;;;;;4965139;28;20039;-75
2022/12/29 12:13:55;;;;;;;2.50;0.80;;;13.60;99.90;;;;;;4965384;29;19906;-75
2022/12/29 12:16:35;;;;;;;3.53;1.50;;;13.50;99.90;;;;;;4963782;29;20027;-76
2022/12/29 12:19:15;;;;;;;3.13;0.93;;;13.30;99.90;;;;;;4965122;28;20043;-75
2022/12/29 12:21:47;;;;;;;2.33;0.93;;;13.40;99.90;;;;;;4965169;29;20046;-75
2022/12/29 12:24:19;;;;;;;3.10;1.10;;;13.40;99.90;;;;;;4964959;29;20042;-75
2022/12/29 12:26:59;;;;;;;4.05;1.00;;;13.40;99.90;;;;;;4965127;28;20031;-75
2022/12/29 12:29:42;;;;;;;2.67;0.85;;;13.50;99.90;;;;;;4965145;28;20074;-75
2022/12/29 12:32:22;;;;;;;2.05;0.90;;;13.60;99.90;;;;;;4964139;28;20082;-75
2022/12/29 12:34:49;;;;;;;2.83;0.80;;;13.70;99.90;;;;;;4964606;28;20054;-75
2022/12/29 12:37:46;;;;;;;3.63;1.00;;;13.90;99.30;;;;;;4965051;28;20042;-76
2022/12/29 12:40:26;;;;;;;2.13;0.80;;;14.00;99.20;;;;;;4964360;28;20039;-76
2022/12/29 12:43:11;;;;;;;2.03;0.80;;;14.00;98.90;;;;;;4963036;29;20039;-75
2022/12/29 12:45:45;;;;;;;3.10;0.88;;;14.00;99.30;;;;;;4964526;29;20198;-75
2022/12/29 12:48:49;;;;;;;2.47;1.02;;;14.00;99.90;;;;;;4964397;28;20083;-76
2022/12/29 12:51:35;;;;;;;4.18;1.00;;;13.70;99.90;;;;;;4964463;28;20081;-75
2022/12/29 12:54:23;;;;;;;3.15;0.80;;;13.80;99.90;;;;;;4964235;28;20103;-75
2022/12/29 12:57:00;;;;;;;4.28;1.30;;;13.80;99.90;;;;;;4965542;28;20126;-75
2022/12/29 12:59:41;;;;;;;3.47;0.93;;;13.80;99.90;;;;;;4964940;29;20101;-76
2022/12/29 13:02:23;;;;;;;3.58;0.90;;;13.90;99.90;;;;;;4969968;28;20106;-76
2022/12/29 13:04:58;;;;;;;2.35;0.90;;;14.20;99.90;;;;;;4968707;29;20095;-76
2022/12/29 13:07:24;;;;;;;1.95;0.73;;;14.80;99.80;;;;;;4969782;28;20039;-75
2022/12/29 13:10:16;;;;;;;3.38;0.98;;;15.40;99.20;;;;;;4967725;28;20047;-76
2022/12/29 13:13:26;;;;;;;3.00;1.08;;;15.70;98.30;;;;;;4964199;29;20038;-76
2022/12/29 13:16:20;;;;;;;2.90;1.17;;;15.90;98.20;;;;;;4936315;28;20096;-76
2022/12/29 13:18:59;;;;;;;3.00;0.90;;;15.80;98.30;;;;;;4963146;29;20039;-75
2022/12/29 13:21:33;;;;;;;3.00;0.95;;;15.50;98.50;;;;;;4963991;29;20062;-76
2022/12/29 13:24:31;;;;;;;2.22;1.08;;;15.70;98.20;;;;;;4963513;28;20278;-74
2022/12/29 13:27:17;;;;;;;2.60;0.80;;;15.50;98.50;;;;;;4930918;28;20085;-75
2022/12/29 13:29:54;;;;;;;2.78;0.82;;;15.30;98.80;;;;;;4963796;28;20244;-79
2022/12/29 13:32:35;;;;;;;3.45;0.90;;;15.10;98.80;;;;;;4963921;29;20030;-81
2022/12/29 13:36:02;;;;;;;2.55;0.65;;;14.70;99.20;;;;;;4966825;28;20023;-78
2022/12/29 13:38:43;;;;;;;3.97;1.00;;;14.20;99.90;;;;;;4880780;29;20230;-79
2022/12/29 13:41:13;;;;;;;1.83;0.70;;;14.00;99.90;;;;;;4938171;29;20054;-78
2022/12/29 13:43:42;;;;;;;3.67;0.88;;;13.80;99.90;;;;;;4956048;29;20043;-79
2022/12/29 13:46:15;;;;;;;3.33;0.80;;;13.80;99.90;;;;;;4963201;28;20376;-76
2022/12/29 13:49:20;;;;;;;3.17;0.85;;;13.80;99.90;;;;;;4964094;29;20075;-76
2022/12/29 13:51:55;;;;;;;2.70;0.75;;;13.80;99.90;;;;;;4955337;28;20169;-76
2022/12/29 13:54:40;;;;;;;4.53;0.93;;;13.70;99.90;;;;;;4963964;28;20138;-76
2022/12/29 13:57:09;;;;;;;1.95;1.00;;;13.70;99.90;;;;;;4963218;28;20035;-77
2022/12/29 13:59:40;;;;;;;;;;;13.70;99.90;;;;;;4964449;28;20031;-76
2022/12/29 14:02:26;;;;;;;4.32;0.90;;;13.70;99.90;;;;;;4961636;29;19921;-77
2022/12/29 14:05:04;;;;;;;1.63;0.90;;;13.60;99.90;;;;;;4963320;28;20114;-77
2022/12/29 14:07:37;;;;;;;3.28;1.00;;;13.50;99.90;;;;;;4947740;29;20036;-75
2022/12/29 14:10:04;;;;;;;2.63;0.95;;;13.50;99.90;;;;;;4944050;29;20019;-80
2022/12/29 14:12:43;;;;;;;2.20;1.00;;;13.50;99.90;;;;;;4955094;29;20043;-77
2022/12/29 14:15:09;;;;;;;2.45;1.00;;;13.70;99.90;;;;;;4961844;29;20328;-77
2022/12/29 14:17:42;;;;;;;3.65;1.23;;;13.80;99.90;;;;;;4963045;28;20325;-76
2022/12/29 14:20:22;;;;;;;5.03;0.90;;;13.70;99.90;;;;;;4962920;29;20054;-75
2022/12/29 14:22:59;;;;;;;2.65;1.02;;;13.60;99.90;;;;;;4963212;28;20055;-75
2022/12/29 14:26:11;;;;;;;2.53;1.08;;;13.50;99.90;;;;;;4963787;28;20035;-77
2022/12/29 14:28:38;;;;;;;3.35;1.10;;;13.40;99.90;;;;;;4967279;28;20027;-75
2022/12/29 14:31:25;;;;;;;3.13;0.98;;;13.40;99.90;;;;;;4961715;29;20023;-76
2022/12/29 14:34:06;;;;;;;2.78;1.13;;;13.30;99.90;;;;;;4944061;29;20036;-77
2022/12/29 14:36:55;;;;;;;2.10;0.90;;;13.40;99.90;;;;;;4950943;29;20378;-78
2022/12/29 14:39:40;;;;;;;2.17;1.08;;;13.60;99.90;;;;;;4963292;29;20035;-79
2022/12/29 14:42:08;;;;;;;2.30;1.02;;;13.70;99.90;;;;;;4961994;28;20078;-78
2022/12/29 14:44:56;;;;;;;3.47;1.27;;;13.50;99.90;;;;;;4963328;28;20035;-77
2022/12/29 14:47:31;;;;;;;3.72;1.10;;;13.40;99.90;;;;;;4962675;28;20062;-77
2022/12/29 14:50:04;;;;;;;4.28;1.20;;;13.20;99.90;;;;;;4952474;29;20023;-78
2022/12/29 14:52:31;;;;;;;2.92;1.20;;;13.10;99.90;;;;;;4962373;29;20038;-79
2022/12/29 14:55:39;;;;;;;3.47;1.60;;;13.00;99.90;;;;;;4964367;28;20082;-78
2022/12/29 14:58:14;;;;;;;3.38;1.20;;;13.00;99.90;;;;;;4964639;29;20047;-79
2022/12/29 15:00:45;;;;;;;2.40;0.90;;;13.00;99.90;;;;;;4966969;28;20300;-83
2022/12/29 15:03:24;;;;;;;5.30;1.30;;;13.00;99.90;;;;;;4964780;29;20039;-74
2022/12/29 15:06:06;;;;;;;3.40;1.30;;;12.90;99.90;;;;;;4960411;28;20353;-73
2022/12/29 15:08:45;;;;;;;3.67;1.13;;;12.80;99.90;;;;;;4966927;28;20023;-73
2022/12/29 15:11:18;;;;;;;5.15;1.40;;;12.80;99.90;;;;;;4962769;28;20035;-75
2022/12/29 15:13:45;;;;;;;3.72;1.23;;;12.80;99.90;;;;;;4960480;29;20317;-74
2022/12/29 15:16:23;;;;;;;4.93;1.27;;;12.70;99.90;;;;;;4965766;28;20061;-75
2022/12/29 15:18:48;;;;;;;2.75;1.30;;;12.60;99.90;;;;;;4964111;28;20051;-73
2022/12/29 15:21:23;;;;;;;4.53;1.33;;;12.50;99.90;;;;;;4965555;28;20331;-74
2022/12/29 15:23:49;;;;;;;3.75;1.45;;;12.40;99.90;;;;;;4966081;28;20108;-75
2022/12/29 15:26:20;;;;;;;6.35;1.33;;;12.30;99.90;;;;;;4965058;29;20301;-74
2022/12/29 15:28:47;;;;;;;2.42;1.02;;;12.20;99.90;;;;;;4965901;28;20069;-74
2022/12/29 15:31:14;;;;;;;3.78;1.52;;;12.20;99.90;;;;;;4965313;28;20031;-73
2022/12/29 15:33:43;;;;;;;2.38;1.10;;;12.20;99.90;;;;;;4965420;28;20323;-74
2022/12/29 15:36:18;;;;;;;2.15;0.95;;;12.20;99.90;;;;;;4965427;28;20055;-74
2022/12/29 15:38:44;;;;;;;4.38;1.00;;;12.20;99.90;;;;;;4965837;29;20042;-73
2022/12/29 15:41:28;;;;;;;3.05;0.95;;;12.30;99.90;;;;;;4964802;28;20031;-74
2022/12/29 15:44:20;;;;;;;3.13;1.10;;;12.20;99.90;;;;;;4962710;29;20054;-73
2022/12/29 15:46:46;;;;;;;4.30;1.42;;;12.20;99.90;;;;;;4946139;29;20036;-74
2022/12/29 15:49:14;;;;;;;4.47;1.40;;;12.30;99.90;;;;;;4963753;29;20031;-74
2022/12/29 15:51:40;;;;;;;4.80;1.88;;;12.40;99.90;;;;;;4965134;28;20078;-73
2022/12/29 15:54:17;;;;;;;3.78;1.40;;;12.40;99.90;;;;;;4963860;29;20301;-74
2022/12/29 15:56:43;;;;;;;5.90;1.58;;;12.50;99.90;;;;;;4964308;29;20027;-75
2022/12/29 15:59:45;;;;;;;2.70;0.90;;;12.50;99.90;;;;;;4965089;29;20037;-73
2022/12/29 16:02:11;;;;;;;2.67;0.68;;;12.40;99.90;;;;;;4924766;28;20039;-74
2022/12/29 16:04:38;;;;;;;2.20;0.70;;;12.20;99.90;;;;;;4944844;29;20058;-79
2022/12/29 16:07:20;;;;;;;1.17;0.50;;;12.00;99.90;;;;;;4943897;29;20298;-79
2022/12/29 16:09:47;;;;;;;1.83;0.57;;;11.80;99.90;;;;;;4944876;29;20023;-80
2022/12/29 16:12:22;;;;;;;1.48;0.45;;;11.70;99.90;;;;;;4954036;28;20039;-80
2022/12/29 16:14:59;;;;;;;1.48;0.50;;;11.60;99.90;;;;;;4964756;28;20205;-80
2022/12/29 16:17:27;;;;;;;2.60;0.40;;;11.50;99.90;;;;;;4965007;28;20047;-80
2022/12/29 16:19:59;;;;;;;1.90;0.50;;;11.30;99.90;;;;;;4965218;29;20061;-80
2022/12/29 16:22:39;;;;;;;2.08;0.50;;;11.20;99.90;;;;;;4964969;28;20090;-80
2022/12/29 16:25:22;;;;;;;1.85;0.32;;;11.10;99.90;;;;;;4963882;29;20034;-82
2022/12/29 16:27:48;;;;;;;1.55;0.40;;;11.10;99.90;;;;;;4963619;29;20031;-80
2022/12/29 16:30:25;;;;;;;2.63;0.70;;;11.00;99.90;;;;;;4963522;29;20039;-81
2022/12/29 16:32:55;;;;;;;2.47;0.60;;;10.90;99.90;;;;;;4963155;28;20384;-80
2022/12/29 16:36:01;;;;;;;2.03;0.73;;;10.90;99.90;;;;;;4962929;28;20118;-80
2022/12/29 16:38:34;;;;;;;2.88;1.85;;;10.90;99.90;;;;;;4943153;29;20035;-79
2022/12/29 16:41:02;;;;;;;3.10;0.82;;;10.90;99.90;;;;;;4943656;29;20039;-80
2022/12/29 16:43:41;;;;;;;1.98;0.50;;;10.90;99.90;;;;;;4928843;29;20059;-79
2022/12/29 16:46:20;;;;;;;1.52;0.50;;;10.90;99.90;;;;;;4921267;29;20047;-80
2022/12/29 16:48:53;;;;;;;2.45;0.50;;;10.80;99.90;;;;;;4924267;29;20039;-80
2022/12/29 16:51:35;;;;;;;2.67;0.50;;;10.90;99.90;;;;;;4909348;29;20041;-80
2022/12/29 16:54:18;;;;;;;3.15;1.00;;;10.80;99.90;;;;;;4908590;29;20055;-80
2022/12/29 16:56:45;;;;;;;2.53;0.80;;;11.00;99.90;;;;;;4924597;29;20043;-79
2022/12/29 16:59:35;;;;;;;3.53;1.23;;;10.90;99.90;;;;;;4924249;29;20032;-81
2022/12/29 17:02:06;;;;;;;3.47;1.52;;;10.90;99.90;;;;;;4924632;29;20135;-79
2022/12/29 17:04:32;;;;;;;3.72;1.48;;;10.80;99.90;;;;;;4897922;29;20224;-78
2022/12/29 17:06:57;;;;;;;3.75;1.00;;;10.80;99.90;;;;;;4924770;29;20035;-79
2022/12/29 17:09:26;;;;;;;6.00;3.17;;;10.80;99.90;;;;;;4928684;29;20051;-79
2022/12/29 17:11:55;;;;;;;4.05;1.80;;;10.70;99.90;;;;;;4945044;29;20027;-79
2022/12/29 17:14:35;;;;;;;4.88;2.20;;;10.70;99.90;;;;;;4973183;28;20039;-81
2022/12/29 17:17:03;;;;;;;4.72;1.10;;;10.70;99.90;;;;;;4975431;28;20379;-80
2022/12/29 17:19:37;;;;;;;17.00;11.75;;;10.70;99.90;;;;;;4964392;29;20078;-79
2022/12/29 17:22:10;;;;;;;4.28;1.30;;;10.70;99.90;;;;;;4947140;29;20047;-82
2022/12/29 17:24:36;;;;;;;3.88;1.25;;;10.60;99.90;;;;;;4979180;28;20030;-78
2022/12/29 17:27:03;;;;;;;2.67;1.08;;;10.60;99.90;;;;;;4964580;28;20073;-78
2022/12/29 17:29:36;;;;;;;2.97;1.20;;;10.60;99.90;;;;;;4979708;28;20033;-81
2022/12/29 17:32:12;;;;;;;4.97;1.00;;;10.50;99.90;;;;;;4960702;29;20023;-80
2022/12/29 17:34:47;;;;;;;3.05;0.82;;;10.50;99.90;;;;;;4965198;29;20023;-82
2022/12/29 17:37:51;;;;;;;2.90;1.20;;;10.40;99.90;;;;;;4964402;28;20063;-82
2022/12/29 17:41:04;;;;;;;3.10;1.17;;;10.40;99.90;;;;;;4963415;29;20027;-80
2022/12/29 17:43:32;;;;;;;2.65;1.02;;;10.40;99.90;;;;;;4889016;29;20077;-79
2022/12/29 17:46:07;;;;;;;3.13;1.30;;;10.30;99.90;;;;;;4905002;29;20028;-80
2022/12/29 17:48:39;;;;;;;3.10;1.10;;;10.30;99.90;;;;;;4886343;29;20063;-82
2022/12/29 17:51:12;;;;;;;3.15;1.05;;;10.30;99.90;;;;;;4870173;29;20040;-81
2022/12/29 17:53:44;;;;;;;3.90;1.27;;;10.30;99.90;;;;;;4886351;29;20077;-81
2022/12/29 17:56:24;;;;;;;2.88;1.15;;;10.30;99.90;;;;;;4885957;29;20099;-81
2022/12/29 17:58:54;;;;;;;2.97;0.93;;;10.20;99.90;;;;;;4897417;29;20107;-80
2022/12/29 18:01:25;;;;;;;3.13;1.00;;;10.20;99.90;;;;;;4904346;29;20248;-81
2022/12/29 18:03:57;;;;;;;4.97;1.88;;;10.20;99.90;;;;;;4904696;29;20048;-80
2022/12/29 18:06:23;;;;;;;4.22;1.10;;;10.20;99.90;;;;;;4888619;29;20256;-80
2022/12/29 18:08:49;;;;;;;3.75;1.30;;;10.20;99.90;;;;;;4904536;29;20032;-80
2022/12/29 18:11:24;;;;;;;4.43;1.35;;;10.20;99.90;;;;;;4888000;29;20107;-80
2022/12/29 18:13:51;;;;;;;9.00;4.50;;;10.10;99.90;;;;;;4914941;29;20314;-79
2022/12/29 18:16:17;;;;;;;6.85;3.00;;;10.10;99.90;;;;;;4922972;29;20039;-80
2022/12/29 18:18:43;;;;;;;111.88;57.85;;;10.10;99.90;;;;;;4920319;29;20040;-80
2022/12/29 18:21:23;;;;;;;27.15;13.95;;;10.20;99.90;;;;;;4951754;29;20265;-80
2022/12/29 18:23:55;;;;;;;13.63;7.18;;;10.20;99.90;;;;;;4943967;29;20299;-81
2022/12/29 18:26:23;;;;;;;3.50;2.00;;;10.20;99.90;;;;;;4945586;29;20031;-79
2022/12/29 18:28:49;;;;;;;2.55;1.13;;;10.20;99.90;;;;;;4945593;29;20028;-79
2022/12/29 18:31:21;;;;;;;4.82;1.50;;;10.30;99.90;;;;;;4947871;29;20039;-82
2022/12/29 18:33:48;;;;;;;4.57;1.50;;;10.00;99.90;;;;;;4948000;29;20132;-78
2022/12/29 18:36:15;;;;;;;2.40;0.75;;;9.90;99.90;;;;;;4947556;29;20187;-81
2022/12/29 18:38:44;;;;;;;3.03;1.40;;;9.70;99.90;;;;;;4948531;29;20035;-82
2022/12/29 18:41:31;;;;;;;4.07;1.10;;;9.60;99.90;;;;;;4947297;29;20099;-84
2022/12/29 18:43:58;;;;;;;2.40;0.88;;;9.60;99.90;;;;;;4965091;29;20031;-78
2022/12/29 18:46:26;;;;;;;3.70;1.70;;;9.60;99.90;;;;;;4966889;28;20090;-80
2022/12/29 18:48:59;;;;;;;3.70;1.10;;;9.50;99.90;;;;;;4966714;29;20027;-80
2022/12/29 18:51:25;;;;;;;1.92;0.75;;;9.50;99.90;;;;;;4949844;29;20114;-80
2022/12/29 18:53:52;;;;;;;4.65;1.00;;;9.50;99.90;;;;;;4965494;28;20035;-81
2022/12/29 18:56:24;;;;;;;3.33;1.10;;;9.50;99.90;;;;;;4966209;29;20228;-80
2022/12/29 18:58:52;;;;;;;3.83;1.25;;;9.50;99.90;;;;;;4949231;29;20035;-80
2022/12/29 19:01:23;;;;;;;3.17;0.90;;;9.50;99.90;;;;;;4965883;28;20045;-80
2022/12/29 19:03:49;;;;;;;5.13;1.60;;;9.60;99.90;;;;;;4966210;28;20290;-79
2022/12/29 19:06:15;;;;;;;2.95;1.45;;;9.60;99.90;;;;;;4966298;28;20066;-79
2022/12/29 19:08:42;;;;;;;3.78;1.65;;;9.50;99.90;;;;;;4966681;28;20035;-78
2022/12/29 19:11:07;;;;;;;4.53;1.00;;;9.50;99.90;;;;;;4964760;29;20019;-79
2022/12/29 19:13:33;;;;;;;2.88;0.90;;;9.60;99.90;;;;;;4973722;28;20031;-79
2022/12/29 19:15:59;;;;;;;3.35;1.05;;;9.60;99.90;;;;;;4985289;28;20300;-79
2022/12/29 19:18:27;;;;;;;2.97;1.05;;;9.60;99.90;;;;;;4966232;28;20039;-78
2022/12/29 19:20:55;;;;;;;5.25;1.75;;;9.60;99.90;;;;;;4966208;28;20264;-79
2022/12/29 19:23:23;;;;;;;4.97;1.15;;;9.60;99.90;;;;;;4965623;28;20043;-80